sensor_id;sensor_type;location;lat;lon;timestamp;pressure;altitude;pressure_sealevel;temperature;humidity
62725;BME280;49026;52.600;4.694;2022-07-29T00:01:20;101915.72;;;14.96;57.50
62725;BME280;49026;52.600;4.694;2022-07-29T00:03:46;101906.28;;;14.91;57.00
62725;BME280;49026;52.600;4.694;2022-07-29T00:06:12;101903.81;;;14.86;57.49
62725;BME280;49026;52.600;4.694;2022-07-29T00:08:37;101906.53;;;14.85;56.61
62725;BME280;49026;52.600;4.694;2022-07-29T00:11:02;101911.94;;;14.81;57.12
62725;BME280;49026;52.600;4.694;2022-07-29T00:13:30;101913.00;;;14.77;57.54
62725;BME280;49026;52.600;4.694;2022-07-29T00:15:56;101904.28;;;14.75;59.37
62725;BME280;49026;52.600;4.694;2022-07-29T00:18:21;101909.50;;;14.77;62.53
62725;BME280;49026;52.600;4.694;2022-07-29T00:20:48;101900.69;;;14.76;58.66
62725;BME280;49026;52.600;4.694;2022-07-29T00:23:14;101901.75;;;14.72;58.12
62725;BME280;49026;52.600;4.694;2022-07-29T00:25:41;101904.50;;;14.69;56.58
62725;BME280;49026;52.600;4.694;2022-07-29T00:28:06;101901.19;;;14.64;58.62
62725;BME280;49026;52.600;4.694;2022-07-29T00:30:34;101900.34;;;14.63;56.69
62725;BME280;49026;52.600;4.694;2022-07-29T00:32:59;101894.16;;;14.63;58.02
62725;BME280;49026;52.600;4.694;2022-07-29T00:35:24;101902.97;;;14.63;58.13
62725;BME280;49026;52.600;4.694;2022-07-29T00:38:09;101900.41;;;14.62;58.94
62725;BME280;49026;52.600;4.694;2022-07-29T00:40:37;101885.31;;;14.64;56.96
62725;BME280;49026;52.600;4.694;2022-07-29T00:43:02;101883.59;;;14.63;59.28
62725;BME280;49026;52.600;4.694;2022-07-29T00:45:27;101888.03;;;14.62;59.71
62725;BME280;49026;52.600;4.694;2022-07-29T00:47:53;101882.78;;;14.61;58.82
62725;BME280;49026;52.600;4.694;2022-07-29T00:50:18;101876.59;;;14.62;58.90
62725;BME280;49026;52.600;4.694;2022-07-29T00:52:46;101877.44;;;14.62;57.75
62725;BME280;49026;52.600;4.694;2022-07-29T00:55:15;101877.44;;;14.62;58.29
62725;BME280;49026;52.600;4.694;2022-07-29T00:57:42;101877.38;;;14.64;58.42
62725;BME280;49026;52.600;4.694;2022-07-29T01:00:11;101870.28;;;14.64;58.82
62725;BME280;49026;52.600;4.694;2022-07-29T01:02:36;101872.88;;;14.66;59.73
62725;BME280;49026;52.600;4.694;2022-07-29T01:05:03;101872.75;;;14.69;59.27
62725;BME280;49026;52.600;4.694;2022-07-29T01:07:30;101863.91;;;14.70;58.39
62725;BME280;49026;52.600;4.694;2022-07-29T01:09:58;101864.69;;;14.72;58.31
62725;BME280;49026;52.600;4.694;2022-07-29T01:12:30;101866.41;;;14.73;57.89
62725;BME280;49026;52.600;4.694;2022-07-29T01:14:58;101870.78;;;14.74;58.46
62725;BME280;49026;52.600;4.694;2022-07-29T01:17:27;101863.63;;;14.76;58.57
62725;BME280;49026;52.600;4.694;2022-07-29T01:20:14;101870.66;;;14.77;67.45
62725;BME280;49026;52.600;4.694;2022-07-29T01:25:58;101855.75;;;14.75;59.06
62725;BME280;49026;52.600;4.694;2022-07-29T01:29:04;101865.38;;;14.77;58.87
62725;BME280;49026;52.600;4.694;2022-07-29T01:34:21;101856.53;;;14.78;57.96
62725;BME280;49026;52.600;4.694;2022-07-29T01:37:01;101857.38;;;14.79;58.27
62725;BME280;49026;52.600;4.694;2022-07-29T01:39:35;101864.47;;;14.78;58.40
62725;BME280;49026;52.600;4.694;2022-07-29T01:42:26;101854.78;;;14.77;58.23
62725;BME280;49026;52.600;4.694;2022-07-29T01:45:03;101856.59;;;14.77;59.56
62725;BME280;49026;52.600;4.694;2022-07-29T01:47:34;101845.13;;;14.76;59.48
62725;BME280;49026;52.600;4.694;2022-07-29T01:50:07;101850.47;;;14.75;58.99
62725;BME280;49026;52.600;4.694;2022-07-29T01:52:39;101851.47;;;14.72;58.35
62725;BME280;49026;52.600;4.694;2022-07-29T01:55:13;101848.94;;;14.69;58.04
62725;BME280;49026;52.600;4.694;2022-07-29T01:57:42;101845.53;;;14.67;58.09
62725;BME280;49026;52.600;4.694;2022-07-29T02:00:09;101846.56;;;14.63;57.87
62725;BME280;49026;52.600;4.694;2022-07-29T02:02:37;101843.06;;;14.62;57.50
62725;BME280;49026;52.600;4.694;2022-07-29T02:05:03;101836.09;;;14.60;58.28
62725;BME280;49026;52.600;4.694;2022-07-29T02:07:32;101834.38;;;14.59;57.40
62725;BME280;49026;52.600;4.694;2022-07-29T02:10:00;101833.63;;;14.55;58.31
62725;BME280;49026;52.600;4.694;2022-07-29T02:12:28;101826.66;;;14.53;58.64
62725;BME280;49026;52.600;4.694;2022-07-29T02:14:56;101824.06;;;14.51;58.65
62725;BME280;49026;52.600;4.694;2022-07-29T02:17:48;101826.78;;;14.50;58.87
62725;BME280;49026;52.600;4.694;2022-07-29T02:20:17;101818.06;;;14.48;58.37
62725;BME280;49026;52.600;4.694;2022-07-29T02:22:46;101828.56;;;14.49;59.53
62725;BME280;49026;52.600;4.694;2022-07-29T02:25:14;101827.78;;;14.47;59.92
62725;BME280;49026;52.600;4.694;2022-07-29T02:27:41;101825.25;;;14.44;60.48
62725;BME280;49026;52.600;4.694;2022-07-29T02:30:08;101822.75;;;14.41;59.82
62725;BME280;49026;52.600;4.694;2022-07-29T02:32:40;101816.53;;;14.42;59.18
62725;BME280;49026;52.600;4.694;2022-07-29T02:35:08;101813.91;;;14.42;60.10
62725;BME280;49026;52.600;4.694;2022-07-29T02:37:35;101816.47;;;14.43;59.92
62725;BME280;49026;52.600;4.694;2022-07-29T02:40:01;101821.81;;;14.42;60.82
62725;BME280;49026;52.600;4.694;2022-07-29T02:42:28;101816.53;;;14.42;59.21
62725;BME280;49026;52.600;4.694;2022-07-29T02:44:53;101819.25;;;14.40;58.46
62725;BME280;49026;52.600;4.694;2022-07-29T02:47:27;101814.13;;;14.36;59.01
62725;BME280;49026;52.600;4.694;2022-07-29T02:50:17;101817.69;;;14.35;58.68
62725;BME280;49026;52.600;4.694;2022-07-29T02:52:54;101816.03;;;14.32;59.14
62725;BME280;49026;52.600;4.694;2022-07-29T02:55:30;101825.69;;;14.33;59.51
62725;BME280;49026;52.600;4.694;2022-07-29T02:58:24;101815.19;;;14.32;58.52
62725;BME280;49026;52.600;4.694;2022-07-29T03:00:48;101817.00;;;14.30;59.69
62725;BME280;49026;52.600;4.694;2022-07-29T03:03:17;101811.72;;;14.30;59.02
62725;BME280;49026;52.600;4.694;2022-07-29T03:05:43;101815.25;;;14.30;59.71
62725;BME280;49026;52.600;4.694;2022-07-29T03:08:10;101813.47;;;14.31;59.04
62725;BME280;49026;52.600;4.694;2022-07-29T03:10:37;101812.63;;;14.30;59.01
62725;BME280;49026;52.600;4.694;2022-07-29T03:13:04;101807.44;;;14.27;58.65
62725;BME280;49026;52.600;4.694;2022-07-29T03:15:33;101811.84;;;14.26;59.63
62725;BME280;49026;52.600;4.694;2022-07-29T03:18:01;101803.91;;;14.26;59.48
62725;BME280;49026;52.600;4.694;2022-07-29T03:20:27;101807.44;;;14.27;60.31
62725;BME280;49026;52.600;4.694;2022-07-29T03:22:52;101809.13;;;14.28;58.96
62725;BME280;49026;52.600;4.694;2022-07-29T03:25:19;101806.66;;;14.25;58.88
62725;BME280;49026;52.600;4.694;2022-07-29T03:27:48;101813.69;;;14.24;60.21
62725;BME280;49026;52.600;4.694;2022-07-29T03:30:13;101812.84;;;14.24;58.99
62725;BME280;49026;52.600;4.694;2022-07-29T03:32:40;101813.03;;;14.19;58.63
62725;BME280;49026;52.600;4.694;2022-07-29T03:35:08;101810.44;;;14.18;60.75
62725;BME280;49026;52.600;4.694;2022-07-29T03:37:34;101813.03;;;14.19;60.46
62725;BME280;49026;52.600;4.694;2022-07-29T03:40:03;101813.03;;;14.19;59.87
62725;BME280;49026;52.600;4.694;2022-07-29T03:42:33;101809.53;;;14.19;61.19
62725;BME280;49026;52.600;4.694;2022-07-29T03:45:04;101809.59;;;14.17;60.08
62725;BME280;49026;52.600;4.694;2022-07-29T03:47:35;101808.59;;;14.20;61.72
62725;BME280;49026;52.600;4.694;2022-07-29T03:50:07;101804.13;;;14.22;60.86
62725;BME280;49026;52.600;4.694;2022-07-29T03:52:36;101798.84;;;14.22;60.67
62725;BME280;49026;52.600;4.694;2022-07-29T03:55:02;101794.41;;;14.22;61.57
62725;BME280;49026;52.600;4.694;2022-07-29T03:57:28;101794.22;;;14.27;61.68
62725;BME280;49026;52.600;4.694;2022-07-29T03:59:57;101783.53;;;14.30;61.11
62725;BME280;49026;52.600;4.694;2022-07-29T04:02:24;101794.09;;;14.30;61.36
62725;BME280;49026;52.600;4.694;2022-07-29T04:04:53;101790.63;;;14.28;60.00
62725;BME280;49026;52.600;4.694;2022-07-29T04:07:18;101790.56;;;14.30;59.95
62725;BME280;49026;52.600;4.694;2022-07-29T04:09:46;101793.03;;;14.34;60.50
62725;BME280;49026;52.600;4.694;2022-07-29T04:12:11;101790.34;;;14.36;60.40
62725;BME280;49026;52.600;4.694;2022-07-29T04:14:39;101790.41;;;14.34;60.13
62725;BME280;49026;52.600;4.694;2022-07-29T04:17:04;101785.16;;;14.33;60.89
62725;BME280;49026;52.600;4.694;2022-07-29T04:19:30;101794.78;;;14.35;60.20
62725;BME280;49026;52.600;4.694;2022-07-29T04:21:57;101786.84;;;14.35;60.52
62725;BME280;49026;52.600;4.694;2022-07-29T04:24:25;101784.06;;;14.38;60.23
62725;BME280;49026;52.600;4.694;2022-07-29T04:26:51;101786.72;;;14.38;59.45
62725;BME280;49026;52.600;4.694;2022-07-29T04:29:16;101785.78;;;14.39;59.44
62725;BME280;49026;52.600;4.694;2022-07-29T04:31:42;101789.22;;;14.41;59.72
62725;BME280;49026;52.600;4.694;2022-07-29T04:34:10;101794.38;;;14.44;59.44
62725;BME280;49026;52.600;4.694;2022-07-29T04:36:35;101793.47;;;14.45;59.75
62725;BME280;49026;52.600;4.694;2022-07-29T04:39:04;101792.63;;;14.45;59.10
62725;BME280;49026;52.600;4.694;2022-07-29T04:41:30;101788.97;;;14.48;59.43
62725;BME280;49026;52.600;4.694;2022-07-29T04:43:56;101789.75;;;14.50;59.12
62725;BME280;49026;52.600;4.694;2022-07-29T04:46:25;101788.84;;;14.51;59.48
62725;BME280;49026;52.600;4.694;2022-07-29T04:48:51;101785.41;;;14.49;59.44
62725;BME280;49026;52.600;4.694;2022-07-29T04:51:16;101788.91;;;14.49;59.94
62725;BME280;49026;52.600;4.694;2022-07-29T04:53:41;101791.63;;;14.48;59.98
62725;BME280;49026;52.600;4.694;2022-07-29T04:56:09;101794.25;;;14.48;59.27
62725;BME280;49026;52.600;4.694;2022-07-29T04:58:35;101793.41;;;14.47;59.94
62725;BME280;49026;52.600;4.694;2022-07-29T05:01:06;101799.56;;;14.48;59.69
62725;BME280;49026;52.600;4.694;2022-07-29T05:03:31;101788.97;;;14.48;59.28
62725;BME280;49026;52.600;4.694;2022-07-29T05:05:56;101790.75;;;14.47;59.51
62725;BME280;49026;52.600;4.694;2022-07-29T05:08:21;101799.56;;;14.48;60.78
62725;BME280;49026;52.600;4.694;2022-07-29T05:10:47;101781.75;;;14.51;59.67
62725;BME280;49026;52.600;4.694;2022-07-29T05:13:13;101793.53;;;14.66;59.98
62725;BME280;49026;52.600;4.694;2022-07-29T05:15:41;101803.19;;;14.88;60.44
62725;BME280;49026;52.600;4.694;2022-07-29T05:18:06;101802.00;;;15.15;59.50
62725;BME280;49026;52.600;4.694;2022-07-29T05:20:32;101792.84;;;15.23;59.18
62725;BME280;49026;52.600;4.694;2022-07-29T05:22:59;101792.28;;;15.16;59.52
62725;BME280;49026;52.600;4.694;2022-07-29T05:25:26;101799.75;;;15.06;59.21
62725;BME280;49026;52.600;4.694;2022-07-29T05:27:54;101793.66;;;15.04;59.47
62725;BME280;49026;52.600;4.694;2022-07-29T05:30:20;101802.78;;;15.17;59.67
62725;BME280;49026;52.600;4.694;2022-07-29T05:32:45;101800.31;;;15.33;59.21
62725;BME280;49026;52.600;4.694;2022-07-29T05:35:11;101797.78;;;15.51;58.86
62725;BME280;49026;52.600;4.694;2022-07-29T05:37:36;101797.91;;;15.67;59.91
62725;BME280;49026;52.600;4.694;2022-07-29T05:40:04;101798.66;;;15.89;58.75
62725;BME280;49026;52.600;4.694;2022-07-29T05:42:30;101801.00;;;16.15;58.89
62725;BME280;49026;52.600;4.694;2022-07-29T05:44:55;101799.28;;;16.50;58.64
62725;BME280;49026;52.600;4.694;2022-07-29T05:47:21;101800.00;;;16.89;57.99
62725;BME280;49026;52.600;4.694;2022-07-29T05:49:49;101786.94;;;17.19;57.71
62725;BME280;49026;52.600;4.694;2022-07-29T05:52:15;101779.78;;;17.37;58.08
62725;BME280;49026;52.600;4.694;2022-07-29T05:54:40;101793.66;;;17.42;57.87
62725;BME280;49026;52.600;4.694;2022-07-29T05:57:06;101793.44;;;17.47;57.57
62725;BME280;49026;52.600;4.694;2022-07-29T05:59:38;101794.63;;;17.57;57.51
62725;BME280;49026;52.600;4.694;2022-07-29T06:02:05;101804.59;;;17.53;57.83
62725;BME280;49026;52.600;4.694;2022-07-29T06:04:31;101809.81;;;17.55;57.69
62725;BME280;49026;52.600;4.694;2022-07-29T06:06:57;101803.66;;;17.54;58.09
62725;BME280;49026;52.600;4.694;2022-07-29T06:09:25;101806.22;;;17.56;57.93
62725;BME280;49026;52.600;4.694;2022-07-29T06:11:51;101813.75;;;17.48;58.39
62725;BME280;49026;52.600;4.694;2022-07-29T06:14:22;101814.41;;;17.35;58.31
62725;BME280;49026;52.600;4.694;2022-07-29T06:16:49;101814.38;;;17.19;62.22
62725;BME280;49026;52.600;4.694;2022-07-29T06:19:14;101819.38;;;17.08;58.92
62725;BME280;49026;52.600;4.694;2022-07-29T06:21:43;101815.41;;;16.99;59.07
62725;BME280;49026;52.600;4.694;2022-07-29T06:24:12;101814.44;;;17.00;59.07
62725;BME280;49026;52.600;4.694;2022-07-29T06:26:38;101816.03;;;17.04;59.25
62725;BME280;49026;52.600;4.694;2022-07-29T06:29:03;101817.72;;;17.06;59.41
62725;BME280;49026;52.600;4.694;2022-07-29T06:31:28;101814.69;;;17.13;59.23
62725;BME280;49026;52.600;4.694;2022-07-29T06:33:54;101808.09;;;17.20;59.29
62725;BME280;49026;52.600;4.694;2022-07-29T06:36:21;101813.31;;;17.22;59.66
62725;BME280;49026;52.600;4.694;2022-07-29T06:38:46;101810.34;;;17.28;59.29
62725;BME280;49026;52.600;4.694;2022-07-29T06:41:12;101811.66;;;17.37;59.40
62725;BME280;49026;52.600;4.694;2022-07-29T06:43:43;101804.81;;;17.49;59.15
62725;BME280;49026;52.600;4.694;2022-07-29T06:46:14;101797.66;;;17.67;58.96
62725;BME280;49026;52.600;4.694;2022-07-29T06:48:43;101808.47;;;17.80;59.21
62725;BME280;49026;52.600;4.694;2022-07-29T06:51:11;101816.56;;;17.94;59.02
62725;BME280;49026;52.600;4.694;2022-07-29T06:53:37;101816.66;;;18.08;59.04
62725;BME280;49026;52.600;4.694;2022-07-29T06:56:04;101823.16;;;18.19;59.21
62725;BME280;49026;52.600;4.694;2022-07-29T06:58:32;101819.06;;;18.13;58.54
62725;BME280;49026;52.600;4.694;2022-07-29T07:01:01;101822.84;;;17.93;58.92
62725;BME280;49026;52.600;4.694;2022-07-29T07:03:27;101818.50;;;17.74;58.67
62725;BME280;49026;52.600;4.694;2022-07-29T07:05:53;101818.56;;;17.57;58.77
62725;BME280;49026;52.600;4.694;2022-07-29T07:08:20;101823.50;;;17.47;58.95
62725;BME280;49026;52.600;4.694;2022-07-29T07:10:46;101818.38;;;17.44;59.19
62725;BME280;49026;52.600;4.694;2022-07-29T07:13:11;101829.19;;;17.57;59.14
62725;BME280;49026;52.600;4.694;2022-07-29T07:15:37;101826.41;;;17.76;59.33
62725;BME280;49026;52.600;4.694;2022-07-29T07:18:05;101827.63;;;18.02;59.41
62725;BME280;49026;52.600;4.694;2022-07-29T07:20:31;101829.75;;;18.27;59.24
62725;BME280;49026;52.600;4.694;2022-07-29T07:22:57;101828.03;;;18.42;58.75
62725;BME280;49026;52.600;4.694;2022-07-29T07:25:24;101837.09;;;18.54;58.79
62725;BME280;49026;52.600;4.694;2022-07-29T07:27:50;101838.19;;;18.66;58.82
62725;BME280;49026;52.600;4.694;2022-07-29T07:30:16;101833.09;;;18.77;58.68
62725;BME280;49026;52.600;4.694;2022-07-29T07:32:41;101828.63;;;18.94;59.29
62725;BME280;49026;52.600;4.694;2022-07-29T07:35:10;101834.94;;;19.07;59.06
62725;BME280;49026;52.600;4.694;2022-07-29T07:37:37;101830.75;;;19.17;59.33
62725;BME280;49026;52.600;4.694;2022-07-29T07:40:04;101823.72;;;19.31;58.07
62725;BME280;49026;52.600;4.694;2022-07-29T07:42:29;101822.78;;;19.32;58.34
62725;BME280;49026;52.600;4.694;2022-07-29T07:44:54;101820.41;;;19.41;58.93
62725;BME280;49026;52.600;4.694;2022-07-29T07:47:22;101819.16;;;19.61;58.79
62725;BME280;49026;52.600;4.694;2022-07-29T07:49:50;101821.25;;;19.85;59.02
62725;BME280;49026;52.600;4.694;2022-07-29T07:52:17;101829.63;;;19.93;58.60
62725;BME280;49026;52.600;4.694;2022-07-29T07:54:49;101826.88;;;19.95;58.82
62725;BME280;49026;52.600;4.694;2022-07-29T07:57:15;101829.09;;;20.15;59.56
62725;BME280;49026;52.600;4.694;2022-07-29T07:59:41;101821.78;;;20.32;59.14
62725;BME280;49026;52.600;4.694;2022-07-29T08:02:06;101824.22;;;20.22;58.04
62725;BME280;49026;52.600;4.694;2022-07-29T08:04:35;101828.19;;;20.29;59.06
62725;BME280;49026;52.600;4.694;2022-07-29T08:07:01;101826.00;;;20.49;58.54
62725;BME280;49026;52.600;4.694;2022-07-29T08:09:28;101836.78;;;20.75;59.58
62725;BME280;49026;52.600;4.694;2022-07-29T08:11:54;101837.47;;;20.78;58.04
62725;BME280;49026;52.600;4.694;2022-07-29T08:14:20;101835.13;;;20.99;58.54
62725;BME280;49026;52.600;4.694;2022-07-29T08:16:45;101830.22;;;21.19;58.10
62725;BME280;49026;52.600;4.694;2022-07-29T08:19:11;101831.50;;;21.26;58.08
62725;BME280;49026;52.600;4.694;2022-07-29T08:21:37;101829.38;;;21.44;58.04
62725;BME280;49026;52.600;4.694;2022-07-29T08:24:05;101820.69;;;21.66;58.16
62725;BME280;49026;52.600;4.694;2022-07-29T08:26:50;101818.63;;;21.82;57.89
62725;BME280;49026;52.600;4.694;2022-07-29T08:29:16;101832.53;;;21.88;57.20
62725;BME280;49026;52.600;4.694;2022-07-29T08:31:44;101816.56;;;21.86;57.60
62725;BME280;49026;52.600;4.694;2022-07-29T08:34:10;101826.16;;;21.64;56.39
62725;BME280;49026;52.600;4.694;2022-07-29T08:36:36;101822.75;;;21.50;56.08
62725;BME280;49026;52.600;4.694;2022-07-29T08:39:02;101827.63;;;21.43;56.08
62725;BME280;49026;52.600;4.694;2022-07-29T08:41:28;101829.56;;;21.28;55.38
62725;BME280;49026;52.600;4.694;2022-07-29T08:43:53;101833.97;;;21.29;56.13
62725;BME280;49026;52.600;4.694;2022-07-29T08:46:20;101827.84;;;21.40;56.42
62725;BME280;49026;52.600;4.694;2022-07-29T08:48:48;101832.59;;;21.62;55.74
62725;BME280;49026;52.600;4.694;2022-07-29T08:51:15;101828.06;;;21.75;55.32
62725;BME280;49026;52.600;4.694;2022-07-29T08:53:45;101826.75;;;21.94;55.10
62725;BME280;49026;52.600;4.694;2022-07-29T08:56:18;101831.88;;;21.97;54.72
62725;BME280;49026;52.600;4.694;2022-07-29T08:58:48;101832.38;;;22.02;55.15
62725;BME280;49026;52.600;4.694;2022-07-29T09:01:16;101824.56;;;21.99;54.36
62725;BME280;49026;52.600;4.694;2022-07-29T09:03:43;101829.72;;;22.02;54.63
62725;BME280;49026;52.600;4.694;2022-07-29T09:06:13;101836.75;;;22.03;54.43
62725;BME280;49026;52.600;4.694;2022-07-29T09:08:39;101830.34;;;22.06;50.98
62725;BME280;49026;52.600;4.694;2022-07-29T09:11:04;101836.59;;;22.17;54.30
62725;BME280;49026;52.600;4.694;2022-07-29T09:13:32;101834.22;;;22.26;54.21
62725;BME280;49026;52.600;4.694;2022-07-29T09:15:57;101828.81;;;22.63;55.18
62725;BME280;49026;52.600;4.694;2022-07-29T09:18:38;101833.63;;;23.17;52.23
62725;BME280;49026;52.600;4.694;2022-07-29T09:21:05;101830.69;;;23.31;54.70
62725;BME280;49026;52.600;4.694;2022-07-29T09:24:10;101827.56;;;23.49;52.93
62725;BME280;49026;52.600;4.694;2022-07-29T09:26:40;101827.53;;;23.72;54.08
62725;BME280;49026;52.600;4.694;2022-07-29T09:29:10;101829.19;;;24.07;53.89
62725;BME280;49026;52.600;4.694;2022-07-29T09:31:38;101820.06;;;24.41;54.83
62725;BME280;49026;52.600;4.694;2022-07-29T09:34:04;101823.72;;;24.94;53.81
62725;BME280;49026;52.600;4.694;2022-07-29T09:36:32;101832.81;;;25.24;53.94
62725;BME280;49026;52.600;4.694;2022-07-29T09:39:03;101826.97;;;25.19;52.78
62725;BME280;49026;52.600;4.694;2022-07-29T09:41:29;101815.50;;;25.17;53.26
62725;BME280;49026;52.600;4.694;2022-07-29T09:43:58;101811.84;;;25.18;53.68
62725;BME280;49026;52.600;4.694;2022-07-29T09:46:24;101805.69;;;25.06;43.82
62725;BME280;49026;52.600;4.694;2022-07-29T09:49:06;101813.84;;;25.25;53.14
62725;BME280;49026;52.600;4.694;2022-07-29T09:51:32;101807.13;;;25.31;53.01
62725;BME280;49026;52.600;4.694;2022-07-29T09:53:58;101807.50;;;25.57;53.40
62725;BME280;49026;52.600;4.694;2022-07-29T09:56:42;101806.22;;;26.02;53.63
62725;BME280;49026;52.600;4.694;2022-07-29T09:59:09;101801.81;;;26.01;52.75
62725;BME280;49026;52.600;4.694;2022-07-29T10:01:36;101806.22;;;26.02;53.25
62725;BME280;49026;52.600;4.694;2022-07-29T10:04:01;101802.69;;;26.01;52.71
62725;BME280;49026;52.600;4.694;2022-07-29T10:06:27;101810.69;;;25.82;51.44
62725;BME280;49026;52.600;4.694;2022-07-29T10:08:53;101810.63;;;25.62;51.38
62725;BME280;49026;52.600;4.694;2022-07-29T10:11:18;101800.50;;;25.85;52.71
62725;BME280;49026;52.600;4.694;2022-07-29T10:13:45;101800.88;;;26.12;51.84
62725;BME280;49026;52.600;4.694;2022-07-29T10:16:12;101801.06;;;25.89;50.39
62725;BME280;49026;52.600;4.694;2022-07-29T10:18:39;101809.78;;;25.62;50.42
62725;BME280;49026;52.600;4.694;2022-07-29T10:21:07;101806.56;;;25.37;49.56
62725;BME280;49026;52.600;4.694;2022-07-29T10:23:34;101805.16;;;25.33;49.39
62725;BME280;49026;52.600;4.694;2022-07-29T10:25:59;101806.78;;;25.24;49.58
62725;BME280;49026;52.600;4.694;2022-07-29T10:28:25;101806.75;;;25.14;49.74
62725;BME280;49026;52.600;4.694;2022-07-29T10:30:51;101805.28;;;25.10;49.98
62725;BME280;49026;52.600;4.694;2022-07-29T10:39:21;101801.03;;;25.69;49.04
62725;BME280;49026;52.600;4.694;2022-07-29T10:42:02;101795.31;;;25.53;42.52
62725;BME280;49026;52.600;4.694;2022-07-29T10:44:34;101806.56;;;25.37;48.91
62725;BME280;49026;52.600;4.694;2022-07-29T10:46:59;101810.09;;;25.07;48.20
62725;BME280;49026;52.600;4.694;2022-07-29T10:49:26;101813.72;;;24.96;48.02
62725;BME280;49026;52.600;4.694;2022-07-29T10:52:04;101807.72;;;24.92;48.03
62725;BME280;49026;52.600;4.694;2022-07-29T10:54:37;101806.63;;;24.95;47.74
62725;BME280;49026;52.600;4.694;2022-07-29T10:57:13;101799.06;;;25.10;48.09
62725;BME280;49026;52.600;4.694;2022-07-29T10:59:43;101810.59;;;25.01;47.79
62725;BME280;49026;52.600;4.694;2022-07-29T11:07:22;101798.38;;;25.39;49.13
62725;BME280;49026;52.600;4.694;2022-07-29T11:15:05;101802.47;;;25.74;49.75
62725;BME280;49026;52.600;4.694;2022-07-29T11:23:39;101798.03;;;26.13;49.03
62725;BME280;49026;52.600;4.694;2022-07-29T11:26:18;101802.56;;;26.42;50.20
62725;BME280;49026;52.600;4.694;2022-07-29T11:31:36;101802.56;;;26.61;49.02
62725;BME280;49026;52.600;4.694;2022-07-29T11:39:40;101793.50;;;26.23;49.23
62725;BME280;49026;52.600;4.694;2022-07-29T11:47:35;101797.34;;;25.70;47.76
62725;BME280;49026;52.600;4.694;2022-07-29T11:50:04;101792.72;;;25.42;44.85
62725;BME280;49026;52.600;4.694;2022-07-29T11:52:43;101796.00;;;25.45;48.31
62725;BME280;49026;52.600;4.694;2022-07-29T11:55:11;101795.53;;;25.40;47.57
62725;BME280;49026;52.600;4.694;2022-07-29T12:00:33;101798.59;;;25.57;47.52
62725;BME280;49026;52.600;4.694;2022-07-29T12:03:01;101802.16;;;25.67;48.46
62725;BME280;49026;52.600;4.694;2022-07-29T12:05:39;101798.63;;;25.66;45.48
62725;BME280;49026;52.600;4.694;2022-07-29T12:08:16;101790.66;;;25.55;46.99
62725;BME280;49026;52.600;4.694;2022-07-29T12:10:48;101791.50;;;25.56;47.80
62725;BME280;49026;52.600;4.694;2022-07-29T12:13:15;101792.09;;;25.69;47.36
62725;BME280;49026;52.600;4.694;2022-07-29T12:15:42;101792.84;;;25.71;47.07
62725;BME280;49026;52.600;4.694;2022-07-29T12:18:13;101789.13;;;25.72;46.97
62725;BME280;49026;52.600;4.694;2022-07-29T12:20:39;101781.53;;;25.87;47.19
62725;BME280;49026;52.600;4.694;2022-07-29T12:23:06;101779.41;;;25.91;46.91
62725;BME280;49026;52.600;4.694;2022-07-29T12:25:33;101782.94;;;25.81;45.90
62725;BME280;49026;52.600;4.694;2022-07-29T12:28:01;101784.06;;;25.88;46.11
62725;BME280;49026;52.600;4.694;2022-07-29T12:33:27;101782.69;;;26.04;45.99
62725;BME280;49026;52.600;4.694;2022-07-29T12:35:58;101786.56;;;26.11;45.80
62725;BME280;49026;52.600;4.694;2022-07-29T12:38:24;101785.81;;;26.09;45.55
62725;BME280;49026;52.600;4.694;2022-07-29T12:40:51;101783.13;;;26.19;45.68
62725;BME280;49026;52.600;4.694;2022-07-29T12:43:18;101786.97;;;26.36;45.42
62725;BME280;49026;52.600;4.694;2022-07-29T12:45:47;101792.78;;;26.60;44.98
62725;BME280;49026;52.600;4.694;2022-07-29T12:48:16;101783.97;;;26.58;45.13
62725;BME280;49026;52.600;4.694;2022-07-29T12:50:56;101790.63;;;26.44;43.08
62725;BME280;49026;52.600;4.694;2022-07-29T12:53:21;101792.94;;;26.30;46.06
62725;BME280;49026;52.600;4.694;2022-07-29T12:55:49;101786.69;;;26.10;46.10
62725;BME280;49026;52.600;4.694;2022-07-29T13:01:06;101782.19;;;25.69;46.97
62725;BME280;49026;52.600;4.694;2022-07-29T13:03:49;101787.19;;;25.84;47.33
62725;BME280;49026;52.600;4.694;2022-07-29T13:11:33;101790.69;;;25.65;47.11
62725;BME280;49026;52.600;4.694;2022-07-29T13:13:58;101786.28;;;25.64;45.60
62725;BME280;49026;52.600;4.694;2022-07-29T13:16:24;101790.84;;;25.73;47.82
62725;BME280;49026;52.600;4.694;2022-07-29T13:19:06;101787.78;;;25.97;47.17
62725;BME280;49026;52.600;4.694;2022-07-29T13:21:31;101788.66;;;26.07;47.15
62725;BME280;49026;52.600;4.694;2022-07-29T13:23:59;101795.50;;;26.21;47.62
62725;BME280;49026;52.600;4.694;2022-07-29T13:26:29;101793.50;;;26.23;47.33
62725;BME280;49026;52.600;4.694;2022-07-29T13:28:55;101791.22;;;26.29;47.59
62725;BME280;49026;52.600;4.694;2022-07-29T13:31:23;101788.38;;;26.20;46.95
62725;BME280;49026;52.600;4.694;2022-07-29T13:33:48;101788.09;;;26.14;47.73
62725;BME280;49026;52.600;4.694;2022-07-29T13:36:14;101784.72;;;26.21;47.60
62725;BME280;49026;52.600;4.694;2022-07-29T13:38:39;101786.13;;;26.25;47.76
62725;BME280;49026;52.600;4.694;2022-07-29T13:41:04;101784.44;;;26.24;48.00
62725;BME280;49026;52.600;4.694;2022-07-29T13:43:30;101794.06;;;26.37;47.83
62725;BME280;49026;52.600;4.694;2022-07-29T13:45:55;101796.75;;;26.56;47.57
62725;BME280;49026;52.600;4.694;2022-07-29T13:48:21;101788.22;;;26.61;46.78
62725;BME280;49026;52.600;4.694;2022-07-29T13:50:48;101794.47;;;26.61;46.62
62725;BME280;49026;52.600;4.694;2022-07-29T13:53:14;101789.66;;;26.55;46.85